sensor_id;sensor_type;location;lat;lon;timestamp;P1;durP1;ratioP1;P2;durP2;ratioP2
64832;SDS011;51290;45.060;38.948;2024-03-25T00:00:11;9.90;;;6.68;;
64832;SDS011;51290;45.060;38.948;2024-03-25T00:02:39;8.15;;;5.72;;
64832;SDS011;51290;45.060;38.948;2024-03-25T00:05:05;12.30;;;5.90;;
64832;SDS011;51290;45.060;38.948;2024-03-25T00:07:35;9.57;;;5.70;;
64832;SDS011;51290;45.060;38.948;2024-03-25T00:10:02;7.65;;;5.72;;
64832;SDS011;51290;45.060;38.948;2024-03-25T00:12:29;17.33;;;6.28;;
64832;SDS011;51290;45.060;38.948;2024-03-25T00:14:55;7.85;;;5.30;;
64832;SDS011;51290;45.060;38.948;2024-03-25T00:17:21;8.00;;;5.68;;
64832;SDS011;51290;45.060;38.948;2024-03-25T00:19:47;9.13;;;6.15;;
64832;SDS011;51290;45.060;38.948;2024-03-25T00:22:19;6.40;;;5.30;;
64832;SDS011;51290;45.060;38.948;2024-03-25T00:24:46;8.45;;;6.10;;
64832;SDS011;51290;45.060;38.948;2024-03-25T00:27:13;8.15;;;5.63;;
64832;SDS011;51290;45.060;38.948;2024-03-25T00:29:39;9.95;;;6.53;;
64832;SDS011;51290;45.060;38.948;2024-03-25T00:32:05;9.32;;;6.30;;
64832;SDS011;51290;45.060;38.948;2024-03-25T00:34:32;9.88;;;6.43;;
64832;SDS011;51290;45.060;38.948;2024-03-25T00:36:58;13.35;;;7.72;;
64832;SDS011;51290;45.060;38.948;2024-03-25T00:39:25;8.10;;;6.60;;
64832;SDS011;51290;45.060;38.948;2024-03-25T00:41:52;9.40;;;6.28;;
64832;SDS011;51290;45.060;38.948;2024-03-25T00:44:18;9.15;;;6.60;;
64832;SDS011;51290;45.060;38.948;2024-03-25T00:46:44;9.35;;;6.47;;
64832;SDS011;51290;45.060;38.948;2024-03-25T00:49:10;8.15;;;6.72;;
64832;SDS011;51290;45.060;38.948;2024-03-25T00:51:36;11.30;;;7.22;;
64832;SDS011;51290;45.060;38.948;2024-03-25T00:54:03;9.15;;;7.15;;
64832;SDS011;51290;45.060;38.948;2024-03-25T00:56:29;7.90;;;6.60;;
64832;SDS011;51290;45.060;38.948;2024-03-25T00:58:56;9.88;;;8.00;;
64832;SDS011;51290;45.060;38.948;2024-03-25T01:01:23;10.18;;;7.43;;
64832;SDS011;51290;45.060;38.948;2024-03-25T01:03:49;8.45;;;7.15;;
64832;SDS011;51290;45.060;38.948;2024-03-25T01:06:15;11.38;;;7.90;;
64832;SDS011;51290;45.060;38.948;2024-03-25T01:08:41;11.70;;;7.68;;
64832;SDS011;51290;45.060;38.948;2024-03-25T01:11:07;13.75;;;8.43;;
64832;SDS011;51290;45.060;38.948;2024-03-25T01:13:33;11.55;;;8.93;;
64832;SDS011;51290;45.060;38.948;2024-03-25T01:15:59;10.25;;;8.73;;
64832;SDS011;51290;45.060;38.948;2024-03-25T01:18:25;14.90;;;9.32;;
64832;SDS011;51290;45.060;38.948;2024-03-25T01:20:51;13.90;;;10.38;;
64832;SDS011;51290;45.060;38.948;2024-03-25T01:23:17;13.40;;;10.43;;
64832;SDS011;51290;45.060;38.948;2024-03-25T01:25:43;9.82;;;8.20;;
64832;SDS011;51290;45.060;38.948;2024-03-25T01:28:09;11.68;;;9.13;;
64832;SDS011;51290;45.060;38.948;2024-03-25T01:30:35;12.18;;;9.70;;
64832;SDS011;51290;45.060;38.948;2024-03-25T01:33:04;12.25;;;10.52;;
64832;SDS011;51290;45.060;38.948;2024-03-25T01:35:30;17.30;;;9.85;;
64832;SDS011;51290;45.060;38.948;2024-03-25T01:37:57;12.32;;;9.27;;
64832;SDS011;51290;45.060;38.948;2024-03-25T01:40:23;15.75;;;10.57;;
64832;SDS011;51290;45.060;38.948;2024-03-25T01:42:56;12.93;;;9.98;;
64832;SDS011;51290;45.060;38.948;2024-03-25T01:45:25;12.82;;;9.23;;
64832;SDS011;51290;45.060;38.948;2024-03-25T01:47:55;11.32;;;8.98;;
64832;SDS011;51290;45.060;38.948;2024-03-25T01:50:22;11.07;;;8.70;;
64832;SDS011;51290;45.060;38.948;2024-03-25T01:52:48;10.65;;;9.20;;
64832;SDS011;51290;45.060;38.948;2024-03-25T01:55:15;12.52;;;8.77;;
64832;SDS011;51290;45.060;38.948;2024-03-25T01:57:45;9.55;;;8.10;;
64832;SDS011;51290;45.060;38.948;2024-03-25T02:00:12;10.20;;;8.32;;
64832;SDS011;51290;45.060;38.948;2024-03-25T02:02:49;10.27;;;7.53;;
64832;SDS011;51290;45.060;38.948;2024-03-25T02:05:16;15.77;;;7.45;;
64832;SDS011;51290;45.060;38.948;2024-03-25T02:07:44;9.90;;;8.13;;
64832;SDS011;51290;45.060;38.948;2024-03-25T02:10:10;11.07;;;7.10;;
64832;SDS011;51290;45.060;38.948;2024-03-25T02:12:40;9.93;;;7.35;;
64832;SDS011;51290;45.060;38.948;2024-03-25T02:15:08;10.55;;;7.63;;
64832;SDS011;51290;45.060;38.948;2024-03-25T02:17:34;11.30;;;7.07;;
64832;SDS011;51290;45.060;38.948;2024-03-25T02:20:01;11.07;;;7.13;;
64832;SDS011;51290;45.060;38.948;2024-03-25T02:22:31;9.75;;;7.18;;
64832;SDS011;51290;45.060;38.948;2024-03-25T02:25:02;11.05;;;6.65;;
64832;SDS011;51290;45.060;38.948;2024-03-25T02:27:32;8.77;;;7.05;;
64832;SDS011;51290;45.060;38.948;2024-03-25T02:30:08;8.73;;;6.20;;
64832;SDS011;51290;45.060;38.948;2024-03-25T02:32:39;9.60;;;6.85;;
64832;SDS011;51290;45.060;38.948;2024-03-25T02:35:06;9.50;;;6.82;;
64832;SDS011;51290;45.060;38.948;2024-03-25T02:37:39;10.45;;;7.07;;
64832;SDS011;51290;45.060;38.948;2024-03-25T02:40:06;8.65;;;6.88;;
64832;SDS011;51290;45.060;38.948;2024-03-25T02:42:36;8.40;;;6.50;;
64832;SDS011;51290;45.060;38.948;2024-03-25T02:45:05;10.18;;;7.75;;
64832;SDS011;51290;45.060;38.948;2024-03-25T02:47:31;11.30;;;7.03;;
64832;SDS011;51290;45.060;38.948;2024-03-25T02:49:57;9.02;;;6.50;;
64832;SDS011;51290;45.060;38.948;2024-03-25T02:52:25;10.00;;;8.13;;
64832;SDS011;51290;45.060;38.948;2024-03-25T02:54:51;12.10;;;9.32;;
64832;SDS011;51290;45.060;38.948;2024-03-25T02:57:17;13.30;;;8.57;;
64832;SDS011;51290;45.060;38.948;2024-03-25T02:59:43;10.88;;;8.95;;
64832;SDS011;51290;45.060;38.948;2024-03-25T03:02:09;10.85;;;8.82;;
64832;SDS011;51290;45.060;38.948;2024-03-25T03:04:35;15.93;;;10.75;;
64832;SDS011;51290;45.060;38.948;2024-03-25T03:07:01;28.70;;;10.85;;
64832;SDS011;51290;45.060;38.948;2024-03-25T03:09:26;11.18;;;9.70;;
64832;SDS011;51290;45.060;38.948;2024-03-25T03:11:52;24.70;;;13.20;;
64832;SDS011;51290;45.060;38.948;2024-03-25T03:14:18;16.58;;;12.05;;
64832;SDS011;51290;45.060;38.948;2024-03-25T03:16:44;14.98;;;11.88;;
64832;SDS011;51290;45.060;38.948;2024-03-25T03:19:10;18.30;;;12.50;;
64832;SDS011;51290;45.060;38.948;2024-03-25T03:21:36;16.52;;;12.85;;
64832;SDS011;51290;45.060;38.948;2024-03-25T03:24:03;18.05;;;12.80;;
64832;SDS011;51290;45.060;38.948;2024-03-25T03:26:29;15.80;;;12.18;;
64832;SDS011;51290;45.060;38.948;2024-03-25T03:28:58;13.73;;;11.25;;
64832;SDS011;51290;45.060;38.948;2024-03-25T03:31:25;14.18;;;11.60;;
64832;SDS011;51290;45.060;38.948;2024-03-25T03:33:52;14.13;;;10.73;;
64832;SDS011;51290;45.060;38.948;2024-03-25T03:36:18;13.57;;;11.18;;
64832;SDS011;51290;45.060;38.948;2024-03-25T03:38:45;19.15;;;12.13;;
64832;SDS011;51290;45.060;38.948;2024-03-25T03:41:12;14.63;;;10.63;;
64832;SDS011;51290;45.060;38.948;2024-03-25T03:43:38;10.88;;;8.98;;
64832;SDS011;51290;45.060;38.948;2024-03-25T03:46:04;11.02;;;9.32;;
64832;SDS011;51290;45.060;38.948;2024-03-25T03:48:30;14.48;;;10.32;;
64832;SDS011;51290;45.060;38.948;2024-03-25T03:50:56;11.88;;;9.45;;
64832;SDS011;51290;45.060;38.948;2024-03-25T03:53:22;12.20;;;9.30;;
64832;SDS011;51290;45.060;38.948;2024-03-25T03:55:58;14.32;;;9.50;;
64832;SDS011;51290;45.060;38.948;2024-03-25T03:58:25;13.80;;;10.05;;
64832;SDS011;51290;45.060;38.948;2024-03-25T04:00:51;19.15;;;10.38;;
64832;SDS011;51290;45.060;38.948;2024-03-25T04:03:18;15.98;;;10.07;;
64832;SDS011;51290;45.060;38.948;2024-03-25T04:05:44;14.18;;;10.32;;
64832;SDS011;51290;45.060;38.948;2024-03-25T04:08:10;11.35;;;8.75;;
64832;SDS011;51290;45.060;38.948;2024-03-25T04:10:37;11.85;;;9.80;;
64832;SDS011;51290;45.060;38.948;2024-03-25T04:13:03;12.55;;;9.07;;
64832;SDS011;51290;45.060;38.948;2024-03-25T04:15:34;12.02;;;8.90;;
64832;SDS011;51290;45.060;38.948;2024-03-25T04:18:00;13.32;;;9.55;;
64832;SDS011;51290;45.060;38.948;2024-03-25T04:20:27;14.20;;;9.32;;
64832;SDS011;51290;45.060;38.948;2024-03-25T04:22:56;10.98;;;9.10;;
64832;SDS011;51290;45.060;38.948;2024-03-25T04:25:22;12.50;;;9.07;;
64832;SDS011;51290;45.060;38.948;2024-03-25T04:27:48;11.45;;;8.55;;
64832;SDS011;51290;45.060;38.948;2024-03-25T04:30:14;10.60;;;8.57;;
64832;SDS011;51290;45.060;38.948;2024-03-25T04:32:40;13.13;;;8.95;;
64832;SDS011;51290;45.060;38.948;2024-03-25T04:35:07;14.75;;;7.85;;
64832;SDS011;51290;45.060;38.948;2024-03-25T04:37:33;11.05;;;8.27;;
64832;SDS011;51290;45.060;38.948;2024-03-25T04:40:00;11.18;;;8.77;;
64832;SDS011;51290;45.060;38.948;2024-03-25T04:42:27;9.88;;;8.10;;
64832;SDS011;51290;45.060;38.948;2024-03-25T04:44:53;10.20;;;8.50;;
64832;SDS011;51290;45.060;38.948;2024-03-25T04:47:19;10.00;;;8.40;;
64832;SDS011;51290;45.060;38.948;2024-03-25T04:49:46;15.43;;;8.85;;
64832;SDS011;51290;45.060;38.948;2024-03-25T04:52:12;14.40;;;10.25;;
64832;SDS011;51290;45.060;38.948;2024-03-25T04:54:38;11.07;;;8.15;;
64832;SDS011;51290;45.060;38.948;2024-03-25T04:57:05;13.93;;;9.13;;
64832;SDS011;51290;45.060;38.948;2024-03-25T04:59:33;13.68;;;8.40;;
64832;SDS011;51290;45.060;38.948;2024-03-25T05:01:59;12.70;;;8.10;;
64832;SDS011;51290;45.060;38.948;2024-03-25T05:04:25;17.60;;;7.68;;
64832;SDS011;51290;45.060;38.948;2024-03-25T05:06:51;9.48;;;7.80;;
64832;SDS011;51290;45.060;38.948;2024-03-25T05:09:17;9.85;;;7.57;;
64832;SDS011;51290;45.060;38.948;2024-03-25T05:11:43;13.73;;;7.88;;
64832;SDS011;51290;45.060;38.948;2024-03-25T05:14:09;14.48;;;7.22;;
64832;SDS011;51290;45.060;38.948;2024-03-25T05:16:35;11.18;;;7.57;;
64832;SDS011;51290;45.060;38.948;2024-03-25T05:19:04;11.05;;;7.75;;
64832;SDS011;51290;45.060;38.948;2024-03-25T05:21:31;10.90;;;7.50;;
64832;SDS011;51290;45.060;38.948;2024-03-25T05:23:57;9.25;;;7.25;;
64832;SDS011;51290;45.060;38.948;2024-03-25T05:26:24;9.50;;;6.85;;
64832;SDS011;51290;45.060;38.948;2024-03-25T05:28:53;11.63;;;7.25;;
64832;SDS011;51290;45.060;38.948;2024-03-25T05:31:21;10.55;;;7.05;;
64832;SDS011;51290;45.060;38.948;2024-03-25T05:33:47;12.27;;;6.55;;
64832;SDS011;51290;45.060;38.948;2024-03-25T05:36:13;11.48;;;6.25;;
64832;SDS011;51290;45.060;38.948;2024-03-25T05:38:39;16.23;;;6.70;;
64832;SDS011;51290;45.060;38.948;2024-03-25T05:41:07;9.43;;;6.07;;
64832;SDS011;51290;45.060;38.948;2024-03-25T05:43:33;13.98;;;6.72;;
64832;SDS011;51290;45.060;38.948;2024-03-25T05:45:59;9.52;;;6.05;;
64832;SDS011;51290;45.060;38.948;2024-03-25T05:48:25;8.13;;;6.18;;
64832;SDS011;51290;45.060;38.948;2024-03-25T05:53:25;10.90;;;6.65;;
64832;SDS011;51290;45.060;38.948;2024-03-25T05:55:51;13.63;;;6.95;;
64832;SDS011;51290;45.060;38.948;2024-03-25T05:58:18;8.20;;;6.38;;
64832;SDS011;51290;45.060;38.948;2024-03-25T06:00:46;9.40;;;5.68;;
64832;SDS011;51290;45.060;38.948;2024-03-25T06:03:13;16.98;;;8.00;;
64832;SDS011;51290;45.060;38.948;2024-03-25T06:05:39;12.80;;;6.65;;
64832;SDS011;51290;45.060;38.948;2024-03-25T06:08:06;8.98;;;6.43;;
64832;SDS011;51290;45.060;38.948;2024-03-25T06:10:36;8.70;;;6.40;;
64832;SDS011;51290;45.060;38.948;2024-03-25T06:13:03;11.45;;;7.55;;
64832;SDS011;51290;45.060;38.948;2024-03-25T06:15:29;9.23;;;6.82;;
64832;SDS011;51290;45.060;38.948;2024-03-25T06:17:55;7.97;;;5.75;;
64832;SDS011;51290;45.060;38.948;2024-03-25T06:20:21;11.48;;;6.57;;
64832;SDS011;51290;45.060;38.948;2024-03-25T06:22:47;10.90;;;6.63;;
64832;SDS011;51290;45.060;38.948;2024-03-25T06:25:13;12.50;;;7.00;;
64832;SDS011;51290;45.060;38.948;2024-03-25T06:27:39;9.70;;;7.38;;
64832;SDS011;51290;45.060;38.948;2024-03-25T06:30:06;10.45;;;7.03;;
64832;SDS011;51290;45.060;38.948;2024-03-25T06:32:58;9.20;;;6.82;;
64832;SDS011;51290;45.060;38.948;2024-03-25T06:35:43;14.43;;;7.05;;
64832;SDS011;51290;45.060;38.948;2024-03-25T06:38:11;16.65;;;7.22;;
64832;SDS011;51290;45.060;38.948;2024-03-25T06:40:37;10.43;;;6.93;;
64832;SDS011;51290;45.060;38.948;2024-03-25T06:43:04;10.80;;;7.20;;
64832;SDS011;51290;45.060;38.948;2024-03-25T06:45:30;10.57;;;7.88;;
64832;SDS011;51290;45.060;38.948;2024-03-25T06:47:57;12.70;;;7.88;;
64832;SDS011;51290;45.060;38.948;2024-03-25T06:50:23;12.60;;;9.05;;
64832;SDS011;51290;45.060;38.948;2024-03-25T06:52:49;11.55;;;7.65;;
64832;SDS011;51290;45.060;38.948;2024-03-25T06:55:16;11.18;;;8.05;;
64832;SDS011;51290;45.060;38.948;2024-03-25T06:57:42;11.10;;;8.23;;
64832;SDS011;51290;45.060;38.948;2024-03-25T07:00:08;11.52;;;8.70;;
64832;SDS011;51290;45.060;38.948;2024-03-25T07:02:38;14.13;;;8.00;;
64832;SDS011;51290;45.060;38.948;2024-03-25T07:05:05;8.73;;;6.82;;
64832;SDS011;51290;45.060;38.948;2024-03-25T07:07:31;11.10;;;7.43;;
64832;SDS011;51290;45.060;38.948;2024-03-25T07:09:59;8.82;;;6.50;;
64832;SDS011;51290;45.060;38.948;2024-03-25T07:12:25;10.20;;;6.97;;
64832;SDS011;51290;45.060;38.948;2024-03-25T07:14:52;10.27;;;7.03;;
64832;SDS011;51290;45.060;38.948;2024-03-25T07:17:18;12.15;;;7.82;;
64832;SDS011;51290;45.060;38.948;2024-03-25T07:19:44;8.48;;;6.65;;
64832;SDS011;51290;45.060;38.948;2024-03-25T07:22:10;13.15;;;7.43;;
64832;SDS011;51290;45.060;38.948;2024-03-25T07:24:36;11.95;;;7.70;;
64832;SDS011;51290;45.060;38.948;2024-03-25T07:27:02;9.27;;;6.88;;
64832;SDS011;51290;45.060;38.948;2024-03-25T07:29:28;8.80;;;6.88;;
64832;SDS011;51290;45.060;38.948;2024-03-25T07:31:54;17.23;;;9.00;;
64832;SDS011;51290;45.060;38.948;2024-03-25T07:34:20;13.00;;;7.95;;
64832;SDS011;51290;45.060;38.948;2024-03-25T07:36:46;12.38;;;8.05;;
64832;SDS011;51290;45.060;38.948;2024-03-25T07:39:14;11.00;;;7.03;;
64832;SDS011;51290;45.060;38.948;2024-03-25T07:41:40;9.32;;;7.20;;
64832;SDS011;51290;45.060;38.948;2024-03-25T07:44:06;8.90;;;5.97;;
64832;SDS011;51290;45.060;38.948;2024-03-25T07:46:32;8.30;;;6.13;;
64832;SDS011;51290;45.060;38.948;2024-03-25T07:48:58;13.77;;;7.40;;
64832;SDS011;51290;45.060;38.948;2024-03-25T07:51:24;10.00;;;6.55;;
64832;SDS011;51290;45.060;38.948;2024-03-25T07:53:50;9.90;;;5.90;;
64832;SDS011;51290;45.060;38.948;2024-03-25T07:56:16;7.65;;;5.95;;
64832;SDS011;51290;45.060;38.948;2024-03-25T07:58:42;8.18;;;5.90;;
64832;SDS011;51290;45.060;38.948;2024-03-25T08:01:08;8.73;;;5.72;;
64832;SDS011;51290;45.060;38.948;2024-03-25T08:03:34;6.60;;;5.38;;
64832;SDS011;51290;45.060;38.948;2024-03-25T08:06:00;6.78;;;4.57;;
64832;SDS011;51290;45.060;38.948;2024-03-25T08:08:26;7.80;;;5.97;;
64832;SDS011;51290;45.060;38.948;2024-03-25T08:10:53;9.60;;;5.80;;
64832;SDS011;51290;45.060;38.948;2024-03-25T08:13:19;8.00;;;5.00;;
64832;SDS011;51290;45.060;38.948;2024-03-25T08:15:48;9.43;;;5.35;;
64832;SDS011;51290;45.060;38.948;2024-03-25T08:18:14;7.35;;;6.18;;
64832;SDS011;51290;45.060;38.948;2024-03-25T08:20:42;6.97;;;5.25;;
64832;SDS011;51290;45.060;38.948;2024-03-25T08:23:08;7.38;;;4.15;;
64832;SDS011;51290;45.060;38.948;2024-03-25T08:25:34;12.73;;;5.63;;
64832;SDS011;51290;45.060;38.948;2024-03-25T08:28:00;7.85;;;5.10;;
64832;SDS011;51290;45.060;38.948;2024-03-25T08:30:26;7.60;;;4.80;;
64832;SDS011;51290;45.060;38.948;2024-03-25T08:32:52;9.82;;;5.50;;
64832;SDS011;51290;45.060;38.948;2024-03-25T08:35:18;6.68;;;4.60;;
64832;SDS011;51290;45.060;38.948;2024-03-25T08:37:44;6.72;;;4.50;;
64832;SDS011;51290;45.060;38.948;2024-03-25T08:40:10;5.35;;;4.13;;
64832;SDS011;51290;45.060;38.948;2024-03-25T08:42:36;7.68;;;4.53;;
64832;SDS011;51290;45.060;38.948;2024-03-25T08:45:02;6.72;;;3.83;;
64832;SDS011;51290;45.060;38.948;2024-03-25T08:47:28;4.38;;;3.40;;
64832;SDS011;51290;45.060;38.948;2024-03-25T08:49:54;5.55;;;3.78;;
64832;SDS011;51290;45.060;38.948;2024-03-25T08:52:20;6.38;;;4.00;;
64832;SDS011;51290;45.060;38.948;2024-03-25T08:54:46;6.57;;;3.97;;
64832;SDS011;51290;45.060;38.948;2024-03-25T08:57:12;5.47;;;4.35;;
64832;SDS011;51290;45.060;38.948;2024-03-25T08:59:38;8.07;;;5.70;;
64832;SDS011;51290;45.060;38.948;2024-03-25T09:02:04;6.80;;;4.70;;
64832;SDS011;51290;45.060;38.948;2024-03-25T09:04:30;5.88;;;4.15;;
64832;SDS011;51290;45.060;38.948;2024-03-25T09:06:56;7.65;;;4.72;;
64832;SDS011;51290;45.060;38.948;2024-03-25T09:09:22;5.65;;;4.07;;
64832;SDS011;51290;45.060;38.948;2024-03-25T09:12:06;6.43;;;4.00;;
64832;SDS011;51290;45.060;38.948;2024-03-25T09:14:32;6.70;;;3.88;;
64832;SDS011;51290;45.060;38.948;2024-03-25T09:16:59;5.65;;;3.65;;
64832;SDS011;51290;45.060;38.948;2024-03-25T09:19:25;5.57;;;3.53;;
64832;SDS011;51290;45.060;38.948;2024-03-25T09:21:51;6.78;;;2.97;;
64832;SDS011;51290;45.060;38.948;2024-03-25T09:24:17;5.10;;;2.53;;
64832;SDS011;51290;45.060;38.948;2024-03-25T09:26:44;5.05;;;3.00;;
64832;SDS011;51290;45.060;38.948;2024-03-25T09:29:11;7.20;;;3.03;;
64832;SDS011;51290;45.060;38.948;2024-03-25T09:31:38;3.85;;;2.80;;
64832;SDS011;51290;45.060;38.948;2024-03-25T09:34:05;5.55;;;2.80;;
64832;SDS011;51290;45.060;38.948;2024-03-25T09:36:31;4.03;;;2.72;;
64832;SDS011;51290;45.060;38.948;2024-03-25T09:38:57;3.67;;;2.83;;
64832;SDS011;51290;45.060;38.948;2024-03-25T09:41:23;4.10;;;2.92;;
64832;SDS011;51290;45.060;38.948;2024-03-25T09:43:52;4.00;;;2.33;;
64832;SDS011;51290;45.060;38.948;2024-03-25T09:46:23;2.72;;;2.15;;
64832;SDS011;51290;45.060;38.948;2024-03-25T09:48:54;2.47;;;2.13;;
64832;SDS011;51290;45.060;38.948;2024-03-25T09:51:20;4.20;;;2.20;;
64832;SDS011;51290;45.060;38.948;2024-03-25T09:53:46;3.47;;;2.30;;
64832;SDS011;51290;45.060;38.948;2024-03-25T09:56:12;2.13;;;1.92;;
64832;SDS011;51290;45.060;38.948;2024-03-25T09:58:39;2.10;;;1.90;;
64832;SDS011;51290;45.060;38.948;2024-03-25T10:01:05;1.75;;;1.65;;
64832;SDS011;51290;45.060;38.948;2024-03-25T10:03:32;3.10;;;2.30;;
64832;SDS011;51290;45.060;38.948;2024-03-25T10:05:58;1.70;;;1.60;;
64832;SDS011;51290;45.060;38.948;2024-03-25T10:08:24;1.88;;;1.73;;
64832;SDS011;51290;45.060;38.948;2024-03-25T10:10:51;1.25;;;1.25;;
64832;SDS011;51290;45.060;38.948;2024-03-25T10:13:20;1.65;;;1.55;;
64832;SDS011;51290;45.060;38.948;2024-03-25T10:15:48;2.25;;;1.70;;
64832;SDS011;51290;45.060;38.948;2024-03-25T10:18:14;1.98;;;1.83;;
64832;SDS011;51290;45.060;38.948;2024-03-25T10:20:49;2.08;;;1.80;;
64832;SDS011;51290;45.060;38.948;2024-03-25T10:23:19;1.65;;;1.55;;
64832;SDS011;51290;45.060;38.948;2024-03-25T10:25:47;1.92;;;1.60;;
64832;SDS011;51290;45.060;38.948;2024-03-25T10:28:14;2.00;;;1.80;;
64832;SDS011;51290;45.060;38.948;2024-03-25T10:30:40;1.58;;;1.48;;
64832;SDS011;51290;45.060;38.948;2024-03-25T10:33:07;4.15;;;1.95;;
64832;SDS011;51290;45.060;38.948;2024-03-25T10:35:34;1.83;;;1.65;;
64832;SDS011;51290;45.060;38.948;2024-03-25T10:38:03;1.65;;;1.38;;
64832;SDS011;51290;45.060;38.948;2024-03-25T10:40:31;2.03;;;1.75;;
64832;SDS011;51290;45.060;38.948;2024-03-25T10:45:40;4.65;;;2.95;;
64832;SDS011;51290;45.060;38.948;2024-03-25T10:48:11;2.63;;;2.10;;
64832;SDS011;51290;45.060;38.948;2024-03-25T10:50:43;3.53;;;1.90;;
64832;SDS011;51290;45.060;38.948;2024-03-25T10:53:10;1.60;;;1.50;;
64832;SDS011;51290;45.060;38.948;2024-03-25T10:55:37;1.70;;;1.60;;
64832;SDS011;51290;45.060;38.948;2024-03-25T10:58:03;1.40;;;1.30;;
64832;SDS011;51290;45.060;38.948;2024-03-25T11:00:31;1.60;;;1.50;;
64832;SDS011;51290;45.060;38.948;2024-03-25T11:02:59;2.00;;;1.70;;
64832;SDS011;51290;45.060;38.948;2024-03-25T11:05:25;1.52;;;1.33;;
64832;SDS011;51290;45.060;38.948;2024-03-25T11:07:51;3.17;;;1.63;;
64832;SDS011;51290;45.060;38.948;2024-03-25T11:10:17;2.97;;;2.20;;
64832;SDS011;51290;45.060;38.948;2024-03-25T11:12:44;4.82;;;1.70;;
64832;SDS011;51290;45.060;38.948;2024-03-25T11:15:10;1.50;;;1.40;;
64832;SDS011;51290;45.060;38.948;2024-03-25T11:17:36;1.50;;;1.40;;
64832;SDS011;51290;45.060;38.948;2024-03-25T11:20:14;1.80;;;1.70;;
64832;SDS011;51290;45.060;38.948;2024-03-25T11:22:50;3.28;;;2.05;;
64832;SDS011;51290;45.060;38.948;2024-03-25T11:25:18;3.63;;;1.90;;
64832;SDS011;51290;45.060;38.948;2024-03-25T11:27:46;4.70;;;1.88;;
64832;SDS011;51290;45.060;38.948;2024-03-25T11:30:13;1.60;;;1.50;;
64832;SDS011;51290;45.060;38.948;2024-03-25T11:32:43;5.50;;;1.42;;
64832;SDS011;51290;45.060;38.948;2024-03-25T11:35:11;2.22;;;2.00;;
64832;SDS011;51290;45.060;38.948;2024-03-25T11:37:40;2.30;;;1.85;;
64832;SDS011;51290;45.060;38.948;2024-03-25T11:40:08;3.05;;;1.63;;
64832;SDS011;51290;45.060;38.948;2024-03-25T11:42:38;3.38;;;1.35;;
64832;SDS011;51290;45.060;38.948;2024-03-25T11:45:05;2.20;;;1.50;;
64832;SDS011;51290;45.060;38.948;2024-03-25T11:47:32;1.77;;;1.67;;
64832;SDS011;51290;45.060;38.948;2024-03-25T11:49:58;1.92;;;1.73;;
64832;SDS011;51290;45.060;38.948;2024-03-25T11:52:29;2.03;;;1.92;;
64832;SDS011;51290;45.060;38.948;2024-03-25T11:54:57;5.20;;;3.70;;
64832;SDS011;51290;45.060;38.948;2024-03-25T11:57:23;2.42;;;2.03;;
64832;SDS011;51290;45.060;38.948;2024-03-25T11:59:49;4.18;;;1.95;;
64832;SDS011;51290;45.060;38.948;2024-03-25T12:02:15;2.22;;;2.03;;
64832;SDS011;51290;45.060;38.948;2024-03-25T12:04:42;2.45;;;2.08;;
64832;SDS011;51290;45.060;38.948;2024-03-25T12:07:12;1.90;;;1.65;;
64832;SDS011;51290;45.060;38.948;2024-03-25T12:09:44;1.67;;;1.58;;
64832;SDS011;51290;45.060;38.948;2024-03-25T12:12:28;1.63;;;1.52;;
64832;SDS011;51290;45.060;38.948;2024-03-25T12:14:55;3.85;;;2.28;;
64832;SDS011;51290;45.060;38.948;2024-03-25T12:17:26;5.47;;;2.17;;
64832;SDS011;51290;45.060;38.948;2024-03-25T12:20:12;3.35;;;2.33;;
64832;SDS011;51290;45.060;38.948;2024-03-25T12:22:41;7.18;;;2.22;;
64832;SDS011;51290;45.060;38.948;2024-03-25T12:25:07;1.80;;;1.70;;
64832;SDS011;51290;45.060;38.948;2024-03-25T12:27:35;2.92;;;2.00;;
64832;SDS011;51290;45.060;38.948;2024-03-25T12:30:03;1.75;;;1.65;;
64832;SDS011;51290;45.060;38.948;2024-03-25T12:35:03;2.63;;;1.92;;
64832;SDS011;51290;45.060;38.948;2024-03-25T12:37:33;4.20;;;3.40;;
64832;SDS011;51290;45.060;38.948;2024-03-25T12:39:59;4.43;;;2.83;;
64832;SDS011;51290;45.060;38.948;2024-03-25T12:42:26;8.00;;;2.60;;
64832;SDS011;51290;45.060;38.948;2024-03-25T12:44:55;2.38;;;2.17;;
64832;SDS011;51290;45.060;38.948;2024-03-25T12:47:21;5.53;;;2.72;;
64832;SDS011;51290;45.060;38.948;2024-03-25T12:49:47;3.20;;;2.17;;
64832;SDS011;51290;45.060;38.948;2024-03-25T12:52:13;2.40;;;2.20;;
64832;SDS011;51290;45.060;38.948;2024-03-25T12:54:39;1.80;;;1.70;;
64832;SDS011;51290;45.060;38.948;2024-03-25T12:57:07;3.22;;;2.10;;
64832;SDS011;51290;45.060;38.948;2024-03-25T12:59:34;2.65;;;2.38;;
64832;SDS011;51290;45.060;38.948;2024-03-25T13:02:00;2.35;;;2.15;;
64832;SDS011;51290;45.060;38.948;2024-03-25T13:04:28;1.77;;;1.67;;
64832;SDS011;51290;45.060;38.948;2024-03-25T13:06:54;3.28;;;2.28;;
64832;SDS011;51290;45.060;38.948;2024-03-25T13:09:20;2.05;;;1.90;;
64832;SDS011;51290;45.060;38.948;2024-03-25T13:11:46;2.30;;;2.10;;
64832;SDS011;51290;45.060;38.948;2024-03-25T13:14:13;2.95;;;2.42;;
64832;SDS011;51290;45.060;38.948;2024-03-25T13:16:41;2.35;;;2.15;;
64832;SDS011;51290;45.060;38.948;2024-03-25T13:19:07;2.47;;;2.15;;
64832;SDS011;51290;45.060;38.948;2024-03-25T13:21:34;2.30;;;2.10;;
64832;SDS011;51290;45.060;38.948;2024-03-25T13:24:00;2.33;;;1.92;;
64832;SDS011;51290;45.060;38.948;2024-03-25T13:26:26;3.35;;;2.13;;
64832;SDS011;51290;45.060;38.948;2024-03-25T13:28:53;2.60;;;1.92;;
64832;SDS011;51290;45.060;38.948;2024-03-25T13:31:19;1.98;;;1.88;;
64832;SDS011;51290;45.060;38.948;2024-03-25T13:33:45;3.20;;;2.20;;
64832;SDS011;51290;45.060;38.948;2024-03-25T13:36:11;2.95;;;2.42;;
64832;SDS011;51290;45.060;38.948;2024-03-25T13:38:37;8.00;;;2.95;;
64832;SDS011;51290;45.060;38.948;2024-03-25T13:41:03;3.22;;;2.47;;
64832;SDS011;51290;45.060;38.948;2024-03-25T13:43:31;4.03;;;2.55;;
64832;SDS011;51290;45.060;38.948;2024-03-25T13:45:57;4.50;;;2.30;;
64832;SDS011;51290;45.060;38.948;2024-03-25T13:48:24;2.05;;;1.85;;
64832;SDS011;51290;45.060;38.948;2024-03-25T13:50:52;3.15;;;2.60;;
64832;SDS011;51290;45.060;38.948;2024-03-25T13:53:19;6.10;;;2.40;;
64832;SDS011;51290;45.060;38.948;2024-03-25T13:55:45;2.28;;;2.08;;
64832;SDS011;51290;45.060;38.948;2024-03-25T13:58:11;2.30;;;2.10;;
64832;SDS011;51290;45.060;38.948;2024-03-25T14:00:37;3.90;;;2.20;;
64832;SDS011;51290;45.060;38.948;2024-03-25T14:03:03;4.03;;;2.90;;
64832;SDS011;51290;45.060;38.948;2024-03-25T14:05:29;3.50;;;3.20;;
64832;SDS011;51290;45.060;38.948;2024-03-25T14:07:56;3.90;;;2.67;;
64832;SDS011;51290;45.060;38.948;2024-03-25T14:10:22;2.28;;;2.13;;
64832;SDS011;51290;45.060;38.948;2024-03-25T14:12:48;6.78;;;2.97;;
64832;SDS011;51290;45.060;38.948;2024-03-25T14:15:14;4.80;;;2.40;;
64832;SDS011;51290;45.060;38.948;2024-03-25T14:17:40;3.20;;;2.80;;
64832;SDS011;51290;45.060;38.948;2024-03-25T14:20:06;3.03;;;2.42;;
64832;SDS011;51290;45.060;38.948;2024-03-25T14:22:34;6.65;;;2.40;;
64832;SDS011;51290;45.060;38.948;2024-03-25T14:25:00;5.82;;;2.95;;
64832;SDS011;51290;45.060;38.948;2024-03-25T14:27:26;4.32;;;2.53;;
64832;SDS011;51290;45.060;38.948;2024-03-25T14:29:52;4.65;;;2.50;;
64832;SDS011;51290;45.060;38.948;2024-03-25T14:32:18;3.53;;;2.28;;
64832;SDS011;51290;45.060;38.948;2024-03-25T14:34:45;2.10;;;2.00;;